Sant Martí Sacalm





Hora UTC 17:00
Temperatura 21.3 ºC
Humitat 53.3 %
Pressió 1025.3 hPa
Pluja 0.0 mm
Velocitat vent 13.8 km/h
Direcció vent E
Radiació solar 338.1 W/m²

Dades diàries 2020-05-25



Hora UTC (hivern +1h; estiu +2h)
Temperatura (ºC) Humitat (%) Pressió (hPa) Velocitat vent (km/h) Precipitació (mm) Radiació solar (W/m²)
Hora UTC Aire Humitat Pressió Vel. Dir. Vel. Max Dir. Intent. màx 5 min. Rad. Sol.
00:05 16.2 73.5 1026.5 2.5 NNE 2.5 NNE 0.0 0.1
00:10 15.9 74.9 1026.5 3.4 NNE 3.9 NNE 0.0 0.1
00:15 15.8 73.3 1026.5 3.2 NNE 3.9 NNE 0.0 0.1
00:20 15.9 72.8 1026.4 2.7 NE 3.2 NNE 0.0 0.1
00:25 15.9 74.5 1026.4 4.0 ENE 5.7 NE 0.0 0.1
00:30 15.8 72.9 1026.3 4.9 NE 6.0 NE 0.0 0.1
00:35 16.0 70.2 1026.3 5.1 NNE 6.7 NNE 0.0 0.1
00:40 16.2 67.7 1026.2 3.3 ENE 4.2 NE 0.0 0.1
00:45 16.2 70.6 1026.2 3.4 ENE 4.6 ENE 0.0 0.1
00:50 16.1 70.3 1026.2 3.9 NE 5.7 ENE 0.0 0.1
00:55 16.2 70.9 1026.2 4.0 NE 5.3 ENE 0.0 0.1
01:00 16.2 71.8 1026.2 3.1 NE 5.3 NE 0.0 0.1
01:05 16.2 69.3 1026.1 0.3 NNE 2.1 NNE 0.0 0.2
01:10 16.4 62.4 1026.1 0.9 WSW 3.2 WSW 0.0 0.1
01:15 16.5 62.6 1026.1 2.1 SW 3.2 SW 0.0 0.1
01:20 16.5 63.6 1026.1 2.1 SSW 3.2 WSW 0.0 0.1
01:25 16.4 66.3 1026.0 1.4 E 4.2 ENE 0.0 0.1
01:30 16.4 68.7 1026.0 4.8 NE 6.4 NE 0.0 0.1
01:35 16.2 71.2 1026.0 5.9 NE 8.1 NNE 0.0 0.1
01:40 16.1 72.4 1026.0 5.3 NE 7.1 ENE 0.0 0.1
01:45 16.1 71.8 1026.0 4.4 NNE 6.0 NE 0.0 0.1
01:50 16.1 71.7 1025.9 3.4 NE 5.3 NNE 0.0 0.1
01:55 16.2 70.7 1025.9 3.4 NNE 6.0 NNW 0.0 0.1
02:00 16.3 71.0 1025.8 3.9 NNE 5.3 NNE 0.0 0.1
02:05 16.3 72.1 1025.7 3.7 NE 5.3 NE 0.0 0.1
02:10 16.3 72.6 1025.7 4.4 NE 6.4 NE 0.0 0.1
02:15 16.2 72.9 1025.7 3.6 NE 5.7 NE 0.0 0.1
02:20 16.1 72.7 1025.7 6.6 NE 9.9 ENE 0.0 0.1
02:25 16.0 71.5 1025.5 7.7 ENE 9.9 ENE 0.0 0.1
02:30 15.9 71.8 1025.6 5.8 ENE 7.4 ENE 0.0 0.1
02:35 15.8 72.1 1025.6 4.0 NE 6.4 NE 0.0 0.1
02:40 15.8 70.7 1025.6 2.7 ENE 4.2 NNE 0.0 0.1
02:45 15.8 69.1 1025.6 2.5 ENE 3.5 NE 0.0 0.1
02:50 15.9 68.8 1025.6 2.5 ENE 6.0 NE 0.0 0.1
02:55 15.8 69.8 1025.6 3.5 ENE 4.6 E 0.0 0.1
03:00 15.7 71.3 1025.5 4.1 E 5.7 ESE 0.0 0.1
03:05 15.6 69.8 1025.5 5.0 SE 7.8 SE 0.0 0.1
03:10 15.6 68.5 1025.5 3.5 S 5.7 SSE 0.0 0.1
03:15 15.5 71.3 1025.5 5.7 S 10.6 S 0.0 0.1
03:20 15.4 72.0 1025.5 8.8 SSE 12.0 SSE 0.0 0.1
03:25 15.2 71.9 1025.5 8.5 SSE 12.4 S 0.0 0.1
03:30 15.2 71.3 1025.5 8.1 SSE 12.0 SSE 0.0 0.1
03:35 15.1 71.5 1025.4 8.7 SSE 11.7 SE 0.0 0.1
03:40 15.1 71.0 1025.4 7.7 S 11.3 S 0.0 0.1
03:45 15.0 70.3 1025.4 8.3 S 12.4 SSE 0.0 0.1
03:50 15.0 69.2 1025.3 7.1 S 10.6 S 0.0 0.1
03:55 14.9 68.9 1025.3 6.6 S 12.0 SSE 0.0 0.1
04:00 14.9 69.4 1025.3 6.3 S 11.3 SSE 0.0 0.1
04:05 14.8 69.0 1025.3 4.8 SSW 10.3 SSE 0.0 0.2
04:10 14.8 66.2 1025.3 4.7 SSW 10.3 SSE 0.0 0.5
04:15 14.8 64.9 1025.3 3.5 SSW 6.7 S 0.0 1.3
04:20 14.7 65.2 1025.4 5.8 SW 8.5 SW 0.0 2.4
04:25 14.6 65.0 1025.4 6.5 SW 8.8 SW 0.0 4.0
04:30 14.6 64.9 1025.4 6.0 SW 7.4 SW 0.0 4.6
04:35 14.7 64.5 1025.5 5.1 SW 7.1 SW 0.0 6.1
04:40 14.7 64.4 1025.5 7.4 SW 9.5 SW 0.0 9.6
04:45 14.6 65.1 1025.5 7.4 SW 9.2 WSW 0.0 10.9
04:50 14.7 64.0 1025.6 6.6 SW 8.8 WSW 0.0 11.5
04:55 14.8 64.1 1025.6 5.8 SSW 6.7 SSW 0.0 15.0
05:00 14.8 63.7 1025.6 5.4 SSW 6.7 SSW 0.0 18.0
05:05 14.8 66.9 1025.6 6.4 SSW 8.1 SW 0.0 23.6
05:10 14.7 68.0 1025.6 6.8 SW 8.5 SW 0.0 25.5
05:15 14.8 66.9 1025.6 6.7 SW 8.8 SW 0.0 22.4
05:20 14.9 66.2 1025.7 5.7 SW 8.1 SW 0.0 28.6
05:25 15.0 66.0 1025.7 3.6 SW 6.0 WSW 0.0 42.7
05:30 15.1 65.9 1025.7 4.2 SSW 6.0 SW 0.0 55.3
05:35 15.2 66.5 1025.8 3.9 SSW 5.3 SSW 0.0 57.6
05:40 15.3 67.8 1025.8 1.8 SW 3.5 SW 0.0 49.4
05:45 15.3 64.7 1025.8 2.2 SW 3.9 SW 0.0 46.1
05:50 15.3 66.0 1025.9 4.9 SW 6.4 SSW 0.0 47.0
05:55 15.3 68.0 1025.9 4.2 SSW 5.7 SSW 0.0 54.9
06:00 15.3 69.8 1025.9 3.8 SSW 5.3 SW 0.0 75.0
06:05 15.3 66.9 1026.0 4.6 SSW 6.0 SSW 0.0 69.5
06:10 15.3 67.6 1026.0 4.6 SSW 6.0 SSW 0.0 51.5
06:15 15.3 68.8 1026.1 3.9 SSW 5.7 SSW 0.0 49.0
06:20 15.3 69.8 1026.2 3.7 SW 5.3 SW 0.0 45.2
06:25 15.3 68.3 1026.2 3.6 SSW 5.0 SSW 0.0 42.8
06:30 15.3 68.1 1026.2 1.1 SW 3.5 SSW 0.0 52.0
06:35 15.4 69.2 1026.2 0.3 SW 2.1 W 0.0 66.3
06:40 15.5 71.5 1026.2 0.9 SW 4.2 SW 0.0 79.5
06:45 15.6 74.1 1026.2 2.7 W 6.7 W 0.0 89.2
06:50 15.6 75.3 1026.3 3.2 N 5.7 N 0.0 103.8
06:55 15.6 73.1 1026.3 4.7 NNE 6.4 NNE 0.0 127.1
07:00 15.7 69.1 1026.3 2.9 N 5.7 NNE 0.0 143.9
07:05 15.9 69.5 1026.3 2.2 N 6.7 NNE 0.0 191.2
07:10 16.1 69.7 1026.4 4.5 NE 7.8 NE 0.0 208.1
07:15 16.2 66.6 1026.4 5.2 NNE 9.2 NNE 0.0 205.7
07:20 16.2 62.3 1026.4 6.8 NNE 8.8 NNE 0.0 231.6
07:25 16.3 63.4 1026.3 4.1 NE 7.4 N 0.0 262.7
07:30 16.5 62.2 1026.3 5.6 NNE 8.5 NE 0.0 298.8
07:35 16.6 62.7 1026.3 4.6 NNE 6.4 NNE 0.0 306.1
07:40 16.7 61.5 1026.4 5.3 NNE 8.1 NNE 0.0 308.6
07:45 16.8 60.2 1026.3 3.7 NNE 8.8 NNE 0.0 351.0
07:50 16.8 65.4 1026.4 5.0 NNE 9.2 NNE 0.0 374.9
07:55 17.0 64.3 1026.4 5.1 NNE 7.8 NNE 0.0 612.6
08:00 17.2 60.5 1026.3 4.8 NNE 8.8 N 0.0 617.9
08:05 17.3 64.9 1026.3 6.0 NNE 10.6 NNE 0.0 637.0
08:10 17.3 68.6 1026.3 6.5 NNE 11.3 NNE 0.0 655.3
08:15 17.2 67.4 1026.2 6.5 NNE 12.4 NNE 0.0 696.8
08:20 17.3 62.4 1026.2 8.5 NNE 13.4 NNE 0.0 774.6
08:25 17.5 60.5 1026.2 9.3 NNE 15.5 NE 0.0 664.2
08:30 17.5 62.0 1026.2 7.9 NE 13.4 NE 0.0 588.7
08:35 17.6 61.8 1026.2 9.0 NNE 15.5 NE 0.0 783.1
08:40 17.9 59.8 1026.2 9.5 NE 14.1 NE 0.0 860.0
08:45 17.9 60.6 1026.2 8.4 NNE 13.8 N 0.0 862.0
08:50 18.1 59.7 1026.2 9.7 NNE 16.2 NNE 0.0 880.0
08:55 18.2 59.1 1026.2 8.3 NNE 14.5 NE 0.0 842.0
09:00 18.1 59.3 1026.2 7.3 NNE 13.4 NNE 0.0 794.6
09:05 18.5 58.8 1026.3 8.2 NNE 13.4 NNE 0.0 826.0
09:10 18.5 58.5 1026.3 9.2 NNE 15.9 N 0.0 887.0
09:15 18.3 60.6 1026.3 8.6 NNE 13.4 N 0.0 1128.0
09:20 18.5 60.7 1026.3 9.4 NNE 14.5 ENE 0.0 1056.0
09:25 19.0 60.3 1026.4 8.8 NE 18.0 NNE 0.0 1106.0
09:30 19.0 61.3 1026.4 6.1 NE 13.4 N 0.0 1054.0
09:35 19.6 59.7 1026.4 6.7 NE 13.8 NNE 0.0 753.6
09:40 19.0 59.9 1026.5 6.4 NNE 12.4 N 0.0 514.9
09:45 18.6 61.6 1026.5 6.6 NNE 10.6 NNE 0.0 480.0
09:50 18.9 61.3 1026.6 6.1 E 9.2 ENE 0.0 418.8
09:55 19.1 59.9 1026.6 2.9 E 5.0 E 0.0 395.3
10:00 19.4 62.1 1026.6 2.8 ENE 5.0 NE 0.0 364.3
10:05 19.7 60.3 1026.6 3.0 E 5.3 E 0.0 373.5
10:10 19.6 58.5 1026.6 1.8 SSW 5.3 SW 0.0 360.2
10:15 19.5 60.1 1026.6 3.5 NE 7.4 ENE 0.0 349.3
10:20 19.2 61.1 1026.6 5.6 NE 8.5 ENE 0.0 378.9
10:25 19.2 62.0 1026.6 5.2 NNE 9.5 ENE 0.0 460.7
10:30 19.1 63.5 1026.6 3.2 NNE 6.7 NNE 0.0 468.4
10:35 19.0 63.8 1026.6 4.6 N 7.8 N 0.0 468.5
10:40 18.8 63.1 1026.6 5.7 N 9.5 N 0.0 464.1
10:45 18.7 63.5 1026.6 4.7 NNE 9.2 NE 0.0 523.5
10:50 19.4 62.7 1026.6 3.9 ENE 7.8 NE 0.0 568.0
10:55 19.7 61.5 1026.5 4.3 S 6.7 SSE 0.0 492.2
11:00 19.1 62.6 1026.5 4.9 WSW 9.2 W 0.0 598.6
11:05 19.1 65.5 1026.5 4.8 W 11.7 SW 0.0 672.6
11:10 19.2 65.4 1026.4 10.2 SW 15.5 SW 0.0 716.5
11:15 19.2 66.5 1026.4 6.6 SSW 15.5 SW 0.0 479.1
11:20 19.0 67.0 1026.4 9.7 SW 13.4 SW 0.0 425.8
11:25 18.8 67.4 1026.4 8.9 SSW 12.4 SW 0.0 395.6
11:30 18.7 67.6 1026.4 8.0 SSW 12.0 SW 0.0 326.5
11:35 18.8 68.7 1026.4 5.4 S 9.5 S 0.0 340.9
11:40 19.1 68.4 1026.5 7.0 SW 10.6 SW 0.0 392.5
11:45 18.8 67.6 1026.5 6.9 SSW 10.6 SW 0.0 412.3
11:50 18.9 68.0 1026.4 5.3 SSW 9.2 SW 0.0 446.0
11:55 19.0 67.4 1026.4 5.4 SW 8.1 SSW 0.0 445.6
12:00 19.2 67.9 1026.5 5.8 SW 9.5 SW 0.0 506.4
12:05 19.2 66.8 1026.5 4.9 SSW 8.8 WSW 0.0 403.8
12:10 19.4 66.1 1026.5 1.9 SW 5.0 S 0.0 353.3
12:15 19.5 66.2 1026.5 4.4 W 8.5 SW 0.0 343.8
12:20 19.4 68.7 1026.4 7.8 SW 13.1 SW 0.0 392.7
12:25 19.2 69.2 1026.4 9.3 SW 14.8 SW 0.0 505.6
12:30 19.6 70.9 1026.3 8.4 SW 12.4 SW 0.0 677.2
12:35 20.0 70.8 1026.3 6.9 WSW 10.6 SW 0.0 984.0
12:40 20.1 66.8 1026.2 5.0 WNW 10.6 SW 0.0 482.0
12:45 19.7 67.7 1026.2 8.4 SW 12.0 SW 0.0 445.8
12:50 19.6 68.9 1026.2 5.9 WSW 10.3 SW 0.0 572.4
12:55 19.9 66.7 1026.1 4.1 WSW 7.4 WSW 0.0 496.0
13:00 20.1 67.3 1026.1 4.9 SW 9.2 SSW 0.0 301.2
13:05 19.9 66.3 1026.0 2.3 SSW 6.0 SW 0.0 257.1
13:10 20.1 66.1 1026.0 4.8 SSE 12.7 SE 0.0 266.8
13:15 20.0 67.2 1026.0 4.6 SSE 9.5 ESE 0.0 444.8
13:20 20.7 66.1 1026.0 3.1 SSE 6.4 SE 0.0 461.6
13:25 21.1 64.7 1026.0 4.5 ESE 9.9 NE 0.0 503.9
13:30 21.3 62.9 1026.0 5.4 E 14.1 ESE 0.0 486.8
13:35 21.5 61.6 1026.0 3.6 ENE 9.5 NE 0.0 462.6
13:40 21.4 60.4 1026.0 8.1 ESE 18.7 SE 0.0 574.7
13:45 21.3 59.6 1026.0 5.0 SSE 10.3 SE 0.0 858.0
13:50 22.0 58.3 1025.9 8.8 E 16.2 E 0.0 788.0
13:55 22.5 53.7 1025.9 3.1 NE 7.4 ESE 0.0 681.9
14:00 22.2 56.1 1025.8 5.3 ENE 11.3 SE 0.0 990.0
14:05 22.5 53.0 1025.8 5.9 E 14.1 NE 0.0 726.2
14:10 22.6 53.7 1025.8 6.7 ENE 15.9 ENE 0.0 815.0
14:15 22.9 51.8 1025.7 9.6 ENE 15.9 ENE 0.0 829.0
14:20 22.8 49.6 1025.7 11.5 E 20.8 E 0.0 827.0
14:25 22.5 51.6 1025.7 4.2 NE 14.8 N 0.0 801.0
14:30 22.2 50.4 1025.6 4.9 NNE 16.2 NNE 0.0 740.9
14:35 22.2 52.3 1025.7 4.8 NE 15.9 NE 0.0 768.8
14:40 22.3 50.7 1025.6 10.4 ENE 18.7 ESE 0.0 743.0
14:45 22.6 49.4 1025.6 11.8 ENE 19.4 ENE 0.0 726.2
14:50 22.3 46.6 1025.6 16.1 ENE 27.9 ENE 0.0 714.9
14:55 22.1 47.8 1025.6 13.9 E 29.3 E 0.0 702.4
15:00 22.0 47.1 1025.5 16.0 E 24.7 ENE 0.0 688.2
15:05 21.9 47.8 1025.5 7.9 ENE 18.4 ESE 0.0 677.3
15:10 22.2 48.0 1025.5 7.8 NE 13.4 N 0.0 649.1
15:15 22.3 47.4 1025.6 8.3 NE 12.7 NE 0.0 633.4
15:20 22.5 46.9 1025.6 8.7 NE 15.2 ENE 0.0 629.7
15:25 22.5 46.4 1025.6 11.1 ENE 18.4 E 0.0 618.5
15:30 22.7 46.1 1025.6 8.1 ENE 16.2 NE 0.0 603.5
15:35 22.4 45.7 1025.5 7.8 NE 15.5 ENE 0.0 590.2
15:40 21.7 48.0 1025.5 9.2 NNE 20.5 NNE 0.0 574.8
15:45 21.9 49.5 1025.5 7.3 NE 25.4 NNE 0.0 560.9
15:50 22.1 47.0 1025.5 13.3 NE 23.7 ENE 0.0 547.2
15:55 21.8 46.5 1025.5 12.2 NE 25.4 ENE 0.0 533.0
16:00 21.7 47.4 1025.5 15.1 ENE 21.9 ENE 0.0 518.7
16:05 21.9 47.3 1025.5 11.8 E 21.5 ENE 0.0 504.7
16:10 22.2 47.6 1025.4 13.9 ENE 24.4 E 0.0 489.8
16:15 21.9 47.4 1025.4 14.0 ENE 24.4 ENE 0.0 475.3
16:20 21.9 49.3 1025.4 12.6 E 20.5 ENE 0.0 461.3
16:25 21.9 48.4 1025.5 10.9 ENE 21.2 E 0.0 445.6
16:30 21.6 50.3 1025.4 14.6 E 24.4 E 0.0 430.5
16:35 21.5 52.2 1025.4 10.6 ENE 17.7 ENE 0.0 414.2
16:40 21.7 52.5 1025.3 10.7 E 21.2 E 0.0 398.4
16:45 21.8 51.1 1025.3 11.3 ENE 20.1 E 0.0 384.6
16:50 21.5 51.0 1025.3 12.1 NE 23.7 ENE 0.0 370.3
16:55 21.4 52.6 1025.3 13.6 E 21.5 ENE 0.0 354.8
17:00 21.3 53.3 1025.3 13.8 E 24.0 E 0.0 338.1
Màxima 23.0 75.3 1026.6 16.1 ENE 29.3 E 0.0 1128.0
Mínima 14.6 45.7 1025.3
Total 0.0